sensor_id;sensor_type;location;lat;lon;timestamp;pressure;altitude;pressure_sealevel;temperature;humidity
24422;BME280;12600;53.326;-6.298;2022-11-23T00:01:16;98101.00;;;7.00;89.39
24422;BME280;12600;53.326;-6.298;2022-11-23T00:04:10;98083.97;;;7.16;89.00
24422;BME280;12600;53.326;-6.298;2022-11-23T00:07:00;98072.13;;;7.40;88.35
24422;BME280;12600;53.326;-6.298;2022-11-23T00:09:51;98050.28;;;7.52;88.28
24422;BME280;12600;53.326;-6.298;2022-11-23T00:12:41;98034.16;;;7.59;87.37
24422;BME280;12600;53.326;-6.298;2022-11-23T00:15:30;98026.69;;;7.72;87.60
24422;BME280;12600;53.326;-6.298;2022-11-23T00:18:20;98021.44;;;7.79;87.53
24422;BME280;12600;53.326;-6.298;2022-11-23T00:21:13;98008.88;;;7.74;87.14
24422;BME280;12600;53.326;-6.298;2022-11-23T00:24:04;98002.66;;;7.74;86.86
24422;BME280;12600;53.326;-6.298;2022-11-23T00:26:53;97969.09;;;7.66;87.09
24422;BME280;12600;53.326;-6.298;2022-11-23T00:29:46;97972.53;;;7.63;86.56
24422;BME280;12600;53.326;-6.298;2022-11-23T00:32:35;97960.44;;;7.61;87.30
24422;BME280;12600;53.326;-6.298;2022-11-23T00:35:26;97941.88;;;7.63;87.46
24422;BME280;12600;53.326;-6.298;2022-11-23T00:38:17;97919.34;;;7.62;87.06
24422;BME280;12600;53.326;-6.298;2022-11-23T00:41:11;97910.06;;;7.63;87.23
24422;BME280;12600;53.326;-6.298;2022-11-23T00:44:01;97913.19;;;7.65;87.21
24422;BME280;12600;53.326;-6.298;2022-11-23T00:46:53;97900.75;;;7.64;87.15
24422;BME280;12600;53.326;-6.298;2022-11-23T00:49:42;97885.16;;;7.61;87.59
24422;BME280;12600;53.326;-6.298;2022-11-23T00:52:31;97874.38;;;7.65;88.15
24422;BME280;12600;53.326;-6.298;2022-11-23T00:55:24;97868.34;;;7.75;88.71
24422;BME280;12600;53.326;-6.298;2022-11-23T00:58:14;97864.41;;;7.92;88.70
24422;BME280;12600;53.326;-6.298;2022-11-23T01:01:07;97852.16;;;8.01;87.85
24422;BME280;12600;53.326;-6.298;2022-11-23T01:03:58;97845.78;;;8.13;87.68
24422;BME280;12600;53.326;-6.298;2022-11-23T01:06:49;97829.63;;;8.24;86.92
24422;BME280;12600;53.326;-6.298;2022-11-23T01:09:38;97821.78;;;8.41;86.17
24422;BME280;12600;53.326;-6.298;2022-11-23T01:12:29;97804.09;;;8.51;85.14
24422;BME280;12600;53.326;-6.298;2022-11-23T01:15:19;97789.22;;;8.72;85.14
24422;BME280;12600;53.326;-6.298;2022-11-23T01:18:08;97774.47;;;8.73;85.17
24422;BME280;12600;53.326;-6.298;2022-11-23T01:21:00;97752.28;;;8.71;84.81
24422;BME280;12600;53.326;-6.298;2022-11-23T01:23:51;97764.16;;;8.85;84.86
24422;BME280;12600;53.326;-6.298;2022-11-23T01:26:41;97755.19;;;8.85;84.69
24422;BME280;12600;53.326;-6.298;2022-11-23T01:29:32;97734.56;;;8.84;84.97
24422;BME280;12600;53.326;-6.298;2022-11-23T01:32:21;97725.19;;;8.81;85.02
24422;BME280;12600;53.326;-6.298;2022-11-23T01:35:11;97723.31;;;8.85;85.02
24422;BME280;12600;53.326;-6.298;2022-11-23T01:38:00;97719.41;;;8.83;85.01
24422;BME280;12600;53.326;-6.298;2022-11-23T01:40:50;97733.78;;;8.83;85.30
24422;BME280;12600;53.326;-6.298;2022-11-23T01:43:39;97715.53;;;8.84;86.16
24422;BME280;12600;53.326;-6.298;2022-11-23T01:46:30;97699.00;;;9.00;87.17
24422;BME280;12600;53.326;-6.298;2022-11-23T01:49:20;97708.44;;;9.09;88.45
24422;BME280;12600;53.326;-6.298;2022-11-23T01:52:14;97708.22;;;9.25;87.89
24422;BME280;12600;53.326;-6.298;2022-11-23T01:55:05;97658.13;;;9.33;87.90
24422;BME280;12600;53.326;-6.298;2022-11-23T01:57:55;97676.31;;;9.25;88.43
24422;BME280;12600;53.326;-6.298;2022-11-23T02:00:45;97660.00;;;9.29;88.12
24422;BME280;12600;53.326;-6.298;2022-11-23T02:03:39;97636.66;;;9.28;88.11
24422;BME280;12600;53.326;-6.298;2022-11-23T02:06:29;97631.97;;;9.29;88.31
24422;BME280;12600;53.326;-6.298;2022-11-23T02:09:22;97640.84;;;9.22;89.17
24422;BME280;12600;53.326;-6.298;2022-11-23T02:12:13;97645.13;;;9.19;88.22
24422;BME280;12600;53.326;-6.298;2022-11-23T02:15:04;97627.91;;;9.12;88.72
24422;BME280;12600;53.326;-6.298;2022-11-23T02:17:54;97612.34;;;9.09;88.96
24422;BME280;12600;53.326;-6.298;2022-11-23T02:20:45;97580.38;;;9.06;89.48
24422;BME280;12600;53.326;-6.298;2022-11-23T02:23:42;97555.38;;;8.93;90.65
24422;BME280;12600;53.326;-6.298;2022-11-23T02:26:36;97523.81;;;8.88;92.29
24422;BME280;12600;53.326;-6.298;2022-11-23T02:29:26;97508.66;;;8.87;92.45
24422;BME280;12600;53.326;-6.298;2022-11-23T02:32:22;97503.97;;;8.84;92.81
24422;BME280;12600;53.326;-6.298;2022-11-23T02:35:15;97518.75;;;8.87;94.02
24422;BME280;12600;53.326;-6.298;2022-11-23T02:38:05;97498.59;;;8.95;93.22
24422;BME280;12600;53.326;-6.298;2022-11-23T02:40:55;97481.88;;;8.93;94.24
24422;BME280;12600;53.326;-6.298;2022-11-23T02:43:47;97465.63;;;9.04;94.45
24422;BME280;12600;53.326;-6.298;2022-11-23T02:46:39;97450.50;;;9.10;94.70
24422;BME280;12600;53.326;-6.298;2022-11-23T02:49:28;97426.38;;;9.08;95.01
24422;BME280;12600;53.326;-6.298;2022-11-23T02:52:18;97417.47;;;9.15;96.38
24422;BME280;12600;53.326;-6.298;2022-11-23T02:55:08;97387.19;;;9.27;96.55
24422;BME280;12600;53.326;-6.298;2022-11-23T02:57:58;97359.56;;;9.29;97.53
24422;BME280;12600;53.326;-6.298;2022-11-23T03:00:50;97370.19;;;9.48;96.36
24422;BME280;12600;53.326;-6.298;2022-11-23T03:03:39;97355.03;;;9.58;96.19
24422;BME280;12600;53.326;-6.298;2022-11-23T03:06:28;97332.47;;;9.61;96.82
24422;BME280;12600;53.326;-6.298;2022-11-23T03:09:18;97332.50;;;9.68;96.67
24422;BME280;12600;53.326;-6.298;2022-11-23T03:12:07;97328.63;;;9.76;96.97
24422;BME280;12600;53.326;-6.298;2022-11-23T03:14:58;97327.88;;;9.79;98.75
24422;BME280;12600;53.326;-6.298;2022-11-23T03:17:51;97317.75;;;9.90;98.23
24422;BME280;12600;53.326;-6.298;2022-11-23T03:20:41;97317.00;;;10.00;97.84
24422;BME280;12600;53.326;-6.298;2022-11-23T03:23:30;97281.16;;;10.02;99.48
24422;BME280;12600;53.326;-6.298;2022-11-23T03:26:24;97274.56;;;10.14;99.80
24422;BME280;12600;53.326;-6.298;2022-11-23T03:29:23;97262.53;;;10.29;99.38
24422;BME280;12600;53.326;-6.298;2022-11-23T03:32:16;97259.41;;;10.38;99.15
24422;BME280;12600;53.326;-6.298;2022-11-23T03:35:10;97249.25;;;10.45;99.68
24422;BME280;12600;53.326;-6.298;2022-11-23T03:38:19;97238.34;;;10.52;100.00
24422;BME280;12600;53.326;-6.298;2022-11-23T03:41:09;97242.63;;;10.60;99.66
24422;BME280;12600;53.326;-6.298;2022-11-23T03:44:12;97242.59;;;10.68;100.00
24422;BME280;12600;53.326;-6.298;2022-11-23T03:47:03;97220.72;;;10.75;99.73
24422;BME280;12600;53.326;-6.298;2022-11-23T03:49:54;97213.34;;;10.72;100.00
24422;BME280;12600;53.326;-6.298;2022-11-23T03:52:47;97183.31;;;10.75;100.00
24422;BME280;12600;53.326;-6.298;2022-11-23T03:55:37;97182.09;;;10.80;100.00
24422;BME280;12600;53.326;-6.298;2022-11-23T03:58:26;97177.00;;;10.92;100.00
24422;BME280;12600;53.326;-6.298;2022-11-23T04:01:15;97171.13;;;10.94;100.00
24422;BME280;12600;53.326;-6.298;2022-11-23T04:04:08;97169.16;;;10.98;100.00
24422;BME280;12600;53.326;-6.298;2022-11-23T04:07:12;97164.44;;;11.06;100.00
24422;BME280;12600;53.326;-6.298;2022-11-23T04:10:10;97164.06;;;11.07;100.00
24422;BME280;12600;53.326;-6.298;2022-11-23T04:13:23;97167.94;;;11.10;100.00
24422;BME280;12600;53.326;-6.298;2022-11-23T04:16:13;97153.84;;;11.18;100.00
24422;BME280;12600;53.326;-6.298;2022-11-23T04:19:03;97195.22;;;11.20;100.00
24422;BME280;12600;53.326;-6.298;2022-11-23T04:21:52;97184.31;;;11.13;100.00
24422;BME280;12600;53.326;-6.298;2022-11-23T04:24:42;97210.06;;;11.16;100.00
24422;BME280;12600;53.326;-6.298;2022-11-23T04:27:33;97236.63;;;11.05;99.66
24422;BME280;12600;53.326;-6.298;2022-11-23T04:30:23;97238.25;;;10.95;97.35
24422;BME280;12600;53.326;-6.298;2022-11-23T04:33:15;97256.22;;;10.82;96.06
24422;BME280;12600;53.326;-6.298;2022-11-23T04:36:05;97245.34;;;10.53;94.92
24422;BME280;12600;53.326;-6.298;2022-11-23T04:38:55;97253.16;;;10.44;94.33
24422;BME280;12600;53.326;-6.298;2022-11-23T04:41:55;97255.47;;;10.42;95.71
24422;BME280;12600;53.326;-6.298;2022-11-23T04:44:45;97259.41;;;10.30;95.92
24422;BME280;12600;53.326;-6.298;2022-11-23T04:47:37;97280.78;;;10.18;95.77
24422;BME280;12600;53.326;-6.298;2022-11-23T04:50:31;97286.66;;;10.13;95.79
24422;BME280;12600;53.326;-6.298;2022-11-23T04:53:22;97287.41;;;9.99;95.61
24422;BME280;12600;53.326;-6.298;2022-11-23T04:56:11;97280.38;;;9.94;95.50
24422;BME280;12600;53.326;-6.298;2022-11-23T04:59:02;97271.41;;;9.87;95.36
24422;BME280;12600;53.326;-6.298;2022-11-23T05:01:54;97272.19;;;9.91;95.31
24422;BME280;12600;53.326;-6.298;2022-11-23T05:05:07;97286.56;;;9.77;94.58
24422;BME280;12600;53.326;-6.298;2022-11-23T05:07:57;97292.78;;;9.74;95.01
24422;BME280;12600;53.326;-6.298;2022-11-23T05:10:59;97306.06;;;9.79;94.31
24422;BME280;12600;53.326;-6.298;2022-11-23T05:13:49;97306.00;;;9.68;93.40
24422;BME280;12600;53.326;-6.298;2022-11-23T05:16:38;97304.88;;;9.73;93.43
24422;BME280;12600;53.326;-6.298;2022-11-23T05:19:30;97322.38;;;9.65;92.85
24422;BME280;12600;53.326;-6.298;2022-11-23T05:22:20;97311.81;;;9.60;92.25
24422;BME280;12600;53.326;-6.298;2022-11-23T05:25:09;97319.66;;;9.65;92.30
24422;BME280;12600;53.326;-6.298;2022-11-23T05:27:59;97310.63;;;9.50;92.20
24422;BME280;12600;53.326;-6.298;2022-11-23T05:31:09;97312.19;;;9.51;92.29
24422;BME280;12600;53.326;-6.298;2022-11-23T05:33:58;97323.09;;;9.47;92.19
24422;BME280;12600;53.326;-6.298;2022-11-23T05:36:59;97321.53;;;9.46;91.96
24422;BME280;12600;53.326;-6.298;2022-11-23T05:39:49;97327.34;;;9.41;92.30
24422;BME280;12600;53.326;-6.298;2022-11-23T05:42:39;97331.63;;;9.42;92.03
24422;BME280;12600;53.326;-6.298;2022-11-23T05:45:35;97331.56;;;9.35;91.97
24422;BME280;12600;53.326;-6.298;2022-11-23T05:48:24;97351.41;;;9.32;92.31
24422;BME280;12600;53.326;-6.298;2022-11-23T05:51:17;97339.34;;;9.33;91.74
24422;BME280;12600;53.326;-6.298;2022-11-23T05:54:10;97342.47;;;9.35;92.55
24422;BME280;12600;53.326;-6.298;2022-11-23T05:57:04;97352.22;;;9.36;92.62
24422;BME280;12600;53.326;-6.298;2022-11-23T05:59:59;97343.56;;;9.16;93.30
24422;BME280;12600;53.326;-6.298;2022-11-23T06:02:59;97360.75;;;9.31;93.73
24422;BME280;12600;53.326;-6.298;2022-11-23T06:05:51;97364.28;;;9.35;93.19
24422;BME280;12600;53.326;-6.298;2022-11-23T06:08:48;97379.00;;;9.27;93.55
24422;BME280;12600;53.326;-6.298;2022-11-23T06:11:40;97378.22;;;9.23;93.47
24422;BME280;12600;53.326;-6.298;2022-11-23T06:14:35;97379.78;;;9.24;93.47
24422;BME280;12600;53.326;-6.298;2022-11-23T06:17:25;97383.69;;;9.23;93.01
24422;BME280;12600;53.326;-6.298;2022-11-23T06:20:20;97394.91;;;9.18;93.02
24422;BME280;12600;53.326;-6.298;2022-11-23T06:23:19;97404.31;;;9.24;92.94
24422;BME280;12600;53.326;-6.298;2022-11-23T06:26:09;97404.25;;;9.17;92.89
24422;BME280;12600;53.326;-6.298;2022-11-23T06:29:01;97410.81;;;9.12;92.50
24422;BME280;12600;53.326;-6.298;2022-11-23T06:31:52;97431.03;;;9.08;92.63
24422;BME280;12600;53.326;-6.298;2022-11-23T06:34:42;97428.31;;;9.11;92.20
24422;BME280;12600;53.326;-6.298;2022-11-23T06:37:32;97443.50;;;9.12;91.69
24422;BME280;12600;53.326;-6.298;2022-11-23T06:40:21;97438.44;;;9.11;90.92
24422;BME280;12600;53.326;-6.298;2022-11-23T06:43:11;97440.00;;;9.12;90.59
24422;BME280;12600;53.326;-6.298;2022-11-23T06:46:06;97447.78;;;9.10;90.26
24422;BME280;12600;53.326;-6.298;2022-11-23T06:48:59;97450.50;;;9.10;90.38
24422;BME280;12600;53.326;-6.298;2022-11-23T06:51:49;97467.59;;;9.07;90.36
24422;BME280;12600;53.326;-6.298;2022-11-23T06:54:39;97471.81;;;9.01;89.99
24422;BME280;12600;53.326;-6.298;2022-11-23T06:57:28;97469.13;;;9.04;90.21
24422;BME280;12600;53.326;-6.298;2022-11-23T07:00:18;97468.34;;;9.04;89.88
24422;BME280;12600;53.326;-6.298;2022-11-23T07:03:20;97494.00;;;9.03;89.67
24422;BME280;12600;53.326;-6.298;2022-11-23T07:06:18;97492.72;;;8.89;89.35
24422;BME280;12600;53.326;-6.298;2022-11-23T07:09:11;97509.16;;;9.00;89.13
24422;BME280;12600;53.326;-6.298;2022-11-23T07:12:11;97520.38;;;8.95;88.75
24422;BME280;12600;53.326;-6.298;2022-11-23T07:15:02;97509.50;;;8.95;88.85
24422;BME280;12600;53.326;-6.298;2022-11-23T07:17:57;97515.38;;;9.01;88.68
24422;BME280;12600;53.326;-6.298;2022-11-23T07:20:48;97529.25;;;8.85;88.15
24422;BME280;12600;53.326;-6.298;2022-11-23T07:23:38;97535.91;;;8.91;88.41
24422;BME280;12600;53.326;-6.298;2022-11-23T07:26:28;97542.53;;;8.93;87.96
24422;BME280;12600;53.326;-6.298;2022-11-23T07:29:18;97551.03;;;8.88;87.92
24422;BME280;12600;53.326;-6.298;2022-11-23T07:32:07;97560.00;;;8.89;87.68
24422;BME280;12600;53.326;-6.298;2022-11-23T07:34:57;97561.13;;;8.84;88.04
24422;BME280;12600;53.326;-6.298;2022-11-23T07:37:49;97563.00;;;8.77;87.90
24422;BME280;12600;53.326;-6.298;2022-11-23T07:40:40;97571.53;;;8.75;87.62
24422;BME280;12600;53.326;-6.298;2022-11-23T07:43:40;97585.09;;;8.72;87.33
24422;BME280;12600;53.326;-6.298;2022-11-23T07:46:29;97596.38;;;8.74;87.24
24422;BME280;12600;53.326;-6.298;2022-11-23T07:49:19;97598.31;;;8.73;86.94
24422;BME280;12600;53.326;-6.298;2022-11-23T07:52:08;97595.19;;;8.71;86.96
24422;BME280;12600;53.326;-6.298;2022-11-23T07:54:59;97597.16;;;8.74;87.13
24422;BME280;12600;53.326;-6.298;2022-11-23T07:57:52;97599.94;;;8.78;86.65
24422;BME280;12600;53.326;-6.298;2022-11-23T08:00:41;97599.47;;;8.72;86.46
24422;BME280;12600;53.326;-6.298;2022-11-23T08:03:31;97598.69;;;8.72;86.63
24422;BME280;12600;53.326;-6.298;2022-11-23T08:06:20;97601.41;;;8.72;86.16
24422;BME280;12600;53.326;-6.298;2022-11-23T08:09:10;97600.69;;;8.75;86.10
24422;BME280;12600;53.326;-6.298;2022-11-23T08:12:00;97606.38;;;8.62;85.56
24422;BME280;12600;53.326;-6.298;2022-11-23T08:14:50;97601.75;;;8.66;85.75
24422;BME280;12600;53.326;-6.298;2022-11-23T08:17:39;97612.38;;;8.75;84.99
24422;BME280;12600;53.326;-6.298;2022-11-23T08:20:29;97604.88;;;8.68;85.35
24422;BME280;12600;53.326;-6.298;2022-11-23T08:23:20;97617.38;;;8.73;84.36
24422;BME280;12600;53.326;-6.298;2022-11-23T08:26:10;97608.41;;;8.69;84.24
24422;BME280;12600;53.326;-6.298;2022-11-23T08:29:02;97605.31;;;8.74;84.10
24422;BME280;12600;53.326;-6.298;2022-11-23T08:31:52;97606.94;;;8.79;83.36
24422;BME280;12600;53.326;-6.298;2022-11-23T08:34:42;97594.53;;;8.81;83.63
24422;BME280;12600;53.326;-6.298;2022-11-23T08:37:32;97588.38;;;8.88;83.71
24422;BME280;12600;53.326;-6.298;2022-11-23T08:40:21;97588.28;;;8.77;83.19
24422;BME280;12600;53.326;-6.298;2022-11-23T08:43:12;97599.25;;;8.84;83.11
24422;BME280;12600;53.326;-6.298;2022-11-23T08:46:03;97613.16;;;8.79;83.07
24422;BME280;12600;53.326;-6.298;2022-11-23T08:48:58;97605.50;;;8.88;82.72
24422;BME280;12600;53.326;-6.298;2022-11-23T08:51:47;97610.56;;;8.90;82.25
24422;BME280;12600;53.326;-6.298;2022-11-23T08:54:37;97617.59;;;8.91;82.42
24422;BME280;12600;53.326;-6.298;2022-11-23T08:57:27;97611.38;;;8.90;81.99
24422;BME280;12600;53.326;-6.298;2022-11-23T09:00:17;97618.78;;;8.93;81.63
24422;BME280;12600;53.326;-6.298;2022-11-23T09:03:08;97612.56;;;8.93;81.65
24422;BME280;12600;53.326;-6.298;2022-11-23T09:05:59;97625.03;;;8.97;81.71
24422;BME280;12600;53.326;-6.298;2022-11-23T09:08:48;97632.84;;;8.99;81.32
24422;BME280;12600;53.326;-6.298;2022-11-23T09:11:38;97642.16;;;8.98;81.68
24422;BME280;12600;53.326;-6.298;2022-11-23T09:14:27;97625.78;;;8.94;81.43
24422;BME280;12600;53.326;-6.298;2022-11-23T09:17:17;97631.25;;;8.94;81.15
24422;BME280;12600;53.326;-6.298;2022-11-23T09:20:10;97633.28;;;9.05;80.96
24422;BME280;12600;53.326;-6.298;2022-11-23T09:23:00;97641.38;;;8.97;81.18
24422;BME280;12600;53.326;-6.298;2022-11-23T09:25:49;97653.03;;;8.94;81.01
24422;BME280;12600;53.326;-6.298;2022-11-23T09:28:38;97658.38;;;8.87;80.44
24422;BME280;12600;53.326;-6.298;2022-11-23T09:31:31;97662.44;;;9.01;80.64
24422;BME280;12600;53.326;-6.298;2022-11-23T09:34:21;97681.53;;;9.04;80.24
24422;BME280;12600;53.326;-6.298;2022-11-23T09:37:12;97666.03;;;9.08;80.28
24422;BME280;12600;53.326;-6.298;2022-11-23T09:40:03;97674.59;;;9.10;80.03
24422;BME280;12600;53.326;-6.298;2022-11-23T09:43:07;97695.53;;;9.06;79.42
24422;BME280;12600;53.326;-6.298;2022-11-23T09:46:05;97678.94;;;9.15;79.66
24422;BME280;12600;53.326;-6.298;2022-11-23T09:49:12;97686.34;;;9.14;79.33
24422;BME280;12600;53.326;-6.298;2022-11-23T09:52:02;97695.34;;;9.22;79.53
24422;BME280;12600;53.326;-6.298;2022-11-23T09:54:56;97689.16;;;9.25;78.63
24422;BME280;12600;53.326;-6.298;2022-11-23T09:57:47;97698.16;;;9.29;79.18
24422;BME280;12600;53.326;-6.298;2022-11-23T10:00:41;97702.00;;;9.24;78.42
24422;BME280;12600;53.326;-6.298;2022-11-23T10:03:36;97695.41;;;9.25;78.67
24422;BME280;12600;53.326;-6.298;2022-11-23T10:06:36;97706.81;;;9.38;78.49
24422;BME280;12600;53.326;-6.298;2022-11-23T10:09:35;97716.19;;;9.41;78.40
24422;BME280;12600;53.326;-6.298;2022-11-23T10:12:38;97716.28;;;9.48;78.39
24422;BME280;12600;53.326;-6.298;2022-11-23T10:15:39;97730.28;;;9.46;77.94
24422;BME280;12600;53.326;-6.298;2022-11-23T10:18:42;97724.44;;;9.48;76.85
24422;BME280;12600;53.326;-6.298;2022-11-23T10:21:42;97729.44;;;9.42;76.19
24422;BME280;12600;53.326;-6.298;2022-11-23T10:24:45;97733.78;;;9.47;76.33
24422;BME280;12600;53.326;-6.298;2022-11-23T10:27:38;97752.84;;;9.47;75.62
24422;BME280;12600;53.326;-6.298;2022-11-23T10:30:28;97760.75;;;9.56;75.98
24422;BME280;12600;53.326;-6.298;2022-11-23T10:33:25;97763.13;;;9.61;75.81
24422;BME280;12600;53.326;-6.298;2022-11-23T10:36:18;97770.22;;;9.69;75.76
24422;BME280;12600;53.326;-6.298;2022-11-23T10:39:18;97784.19;;;9.64;74.66
24422;BME280;12600;53.326;-6.298;2022-11-23T10:42:22;97778.88;;;9.78;75.03
24422;BME280;12600;53.326;-6.298;2022-11-23T10:45:21;97772.63;;;9.77;74.62
24422;BME280;12600;53.326;-6.298;2022-11-23T10:48:10;97771.63;;;9.93;74.70
24422;BME280;12600;53.326;-6.298;2022-11-23T10:51:15;97775.13;;;9.93;74.44
24422;BME280;12600;53.326;-6.298;2022-11-23T10:54:20;97776.38;;;9.99;74.10
24422;BME280;12600;53.326;-6.298;2022-11-23T10:57:29;97768.59;;;10.01;73.89
24422;BME280;12600;53.326;-6.298;2022-11-23T11:00:22;97762.72;;;9.99;73.99
24422;BME280;12600;53.326;-6.298;2022-11-23T11:03:22;97767.13;;;10.11;73.71
24422;BME280;12600;53.326;-6.298;2022-11-23T11:06:22;97768.31;;;10.14;74.18
24422;BME280;12600;53.326;-6.298;2022-11-23T11:09:19;97776.88;;;10.12;73.79
24422;BME280;12600;53.326;-6.298;2022-11-23T11:12:15;97756.31;;;10.22;73.13
24422;BME280;12600;53.326;-6.298;2022-11-23T11:15:15;97771.56;;;10.26;73.26
24422;BME280;12600;53.326;-6.298;2022-11-23T11:18:18;97765.38;;;10.29;73.26
24422;BME280;12600;53.326;-6.298;2022-11-23T11:21:19;97761.09;;;10.32;72.70
24422;BME280;12600;53.326;-6.298;2022-11-23T11:24:17;97752.97;;;10.39;72.78
24422;BME280;12600;53.326;-6.298;2022-11-23T11:27:14;97760.28;;;10.83;73.53
24422;BME280;12600;53.326;-6.298;2022-11-23T11:30:10;97774.69;;;11.56;70.51
24422;BME280;12600;53.326;-6.298;2022-11-23T11:33:16;97782.63;;;12.25;65.82
24422;BME280;12600;53.326;-6.298;2022-11-23T11:36:09;97803.75;;;12.75;66.45
24422;BME280;12600;53.326;-6.298;2022-11-23T11:39:01;97818.63;;;12.49;61.94
24422;BME280;12600;53.326;-6.298;2022-11-23T11:42:14;97822.56;;;12.48;61.59
24422;BME280;12600;53.326;-6.298;2022-11-23T11:45:24;97805.34;;;12.44;61.26
24422;BME280;12600;53.326;-6.298;2022-11-23T11:48:19;97804.56;;;12.47;61.41
24422;BME280;12600;53.326;-6.298;2022-11-23T11:51:16;97783.41;;;12.08;61.64
24422;BME280;12600;53.326;-6.298;2022-11-23T11:54:16;97803.38;;;12.33;61.69
24422;BME280;12600;53.326;-6.298;2022-11-23T11:57:16;97788.09;;;12.86;61.65
24422;BME280;12600;53.326;-6.298;2022-11-23T12:00:14;97792.34;;;13.19;60.79
24422;BME280;12600;53.326;-6.298;2022-11-23T12:03:17;97782.13;;;13.41;60.16
24422;BME280;12600;53.326;-6.298;2022-11-23T12:06:12;97782.84;;;13.56;57.45
24422;BME280;12600;53.326;-6.298;2022-11-23T12:09:16;97783.09;;;13.79;59.00
24422;BME280;12600;53.326;-6.298;2022-11-23T12:12:14;97790.19;;;13.73;57.00
24422;BME280;12600;53.326;-6.298;2022-11-23T12:15:08;97785.16;;;13.61;55.64
24422;BME280;12600;53.326;-6.298;2022-11-23T12:18:47;97790.97;;;13.70;56.85
24422;BME280;12600;53.326;-6.298;2022-11-23T12:25:27;97787.50;;;13.66;56.06
24422;BME280;12600;53.326;-6.298;2022-11-23T12:28:40;97785.94;;;13.61;55.99
24422;BME280;12600;53.326;-6.298;2022-11-23T12:31:40;97779.22;;;13.73;56.22
24422;BME280;12600;53.326;-6.298;2022-11-23T12:34:51;97786.38;;;13.56;55.37
24422;BME280;12600;53.326;-6.298;2022-11-23T12:37:58;97778.97;;;13.39;55.59
24422;BME280;12600;53.326;-6.298;2022-11-23T12:41:13;97776.19;;;13.50;55.72
24422;BME280;12600;53.326;-6.298;2022-11-23T12:44:38;97771.53;;;13.39;55.58
24422;BME280;12600;53.326;-6.298;2022-11-23T12:47:45;97777.84;;;13.26;56.15
24422;BME280;12600;53.326;-6.298;2022-11-23T12:50:46;97781.78;;;13.21;56.64
24422;BME280;12600;53.326;-6.298;2022-11-23T12:53:50;97794.72;;;12.99;56.47
24422;BME280;12600;53.326;-6.298;2022-11-23T12:56:58;97786.50;;;12.96;57.64
24422;BME280;12600;53.326;-6.298;2022-11-23T12:59:55;97790.00;;;13.14;57.95
24422;BME280;12600;53.326;-6.298;2022-11-23T13:06:59;97809.16;;;13.35;56.25
24422;BME280;12600;53.326;-6.298;2022-11-23T13:10:26;97784.06;;;13.40;55.73
24422;BME280;12600;53.326;-6.298;2022-11-23T13:13:45;97783.38;;;13.08;55.62
24422;BME280;12600;53.326;-6.298;2022-11-23T13:17:01;97774.78;;;12.81;56.46
24422;BME280;12600;53.326;-6.298;2022-11-23T13:20:27;97770.91;;;12.39;58.33
24422;BME280;12600;53.326;-6.298;2022-11-23T13:23:19;97774.84;;;12.20;58.85
24422;BME280;12600;53.326;-6.298;2022-11-23T13:26:18;97783.78;;;11.92;60.13
24422;BME280;12600;53.326;-6.298;2022-11-23T13:29:55;97776.25;;;11.68;61.14
24422;BME280;12600;53.326;-6.298;2022-11-23T13:32:56;97768.41;;;11.48;62.08
24422;BME280;12600;53.326;-6.298;2022-11-23T13:35:55;97780.97;;;11.78;61.89
24422;BME280;12600;53.326;-6.298;2022-11-23T13:38:56;97768.41;;;11.63;62.00
24422;BME280;12600;53.326;-6.298;2022-11-23T13:41:59;97788.00;;;11.75;61.90
24422;BME280;12600;53.326;-6.298;2022-11-23T13:45:25;97770.78;;;11.68;61.68
24422;BME280;12600;53.326;-6.298;2022-11-23T13:48:17;97791.88;;;11.60;61.83
24422;BME280;12600;53.326;-6.298;2022-11-23T13:51:29;97782.50;;;11.61;61.69
24422;BME280;12600;53.326;-6.298;2022-11-23T13:54:20;97778.59;;;11.69;62.15
24422;BME280;12600;53.326;-6.298;2022-11-23T13:57:12;97757.84;;;11.54;62.00
24422;BME280;12600;53.326;-6.298;2022-11-23T14:00:47;97776.28;;;11.75;62.15
24422;BME280;12600;53.326;-6.298;2022-11-23T14:03:50;97782.94;;;11.77;62.35
24422;BME280;12600;53.326;-6.298;2022-11-23T14:06:45;97775.50;;;11.78;63.48
24422;BME280;12600;53.326;-6.298;2022-11-23T14:09:45;97793.03;;;11.59;63.74
24422;BME280;12600;53.326;-6.298;2022-11-23T14:12:43;97785.63;;;11.60;63.76
24422;BME280;12600;53.326;-6.298;2022-11-23T14:15:38;97797.25;;;11.39;63.99
24422;BME280;12600;53.326;-6.298;2022-11-23T14:18:47;97774.59;;;11.38;63.87
24422;BME280;12600;53.326;-6.298;2022-11-23T14:21:47;97772.16;;;11.15;63.68
24422;BME280;12600;53.326;-6.298;2022-11-23T14:25:17;97783.41;;;11.03;63.47
24422;BME280;12600;53.326;-6.298;2022-11-23T14:28:30;97777.16;;;11.03;63.85
24422;BME280;12600;53.326;-6.298;2022-11-23T14:31:29;97777.22;;;11.10;64.41
24422;BME280;12600;53.326;-6.298;2022-11-23T14:34:31;97773.63;;;10.99;65.01
24422;BME280;12600;53.326;-6.298;2022-11-23T14:37:31;97771.69;;;11.03;65.71
24422;BME280;12600;53.326;-6.298;2022-11-23T14:40:28;97793.47;;;10.88;66.72
24422;BME280;12600;53.326;-6.298;2022-11-23T14:43:19;97796.19;;;10.88;67.67
24422;BME280;12600;53.326;-6.298;2022-11-23T14:46:15;97788.34;;;10.80;68.23
24422;BME280;12600;53.326;-6.298;2022-11-23T14:49:11;97789.91;;;10.81;68.55
24422;BME280;12600;53.326;-6.298;2022-11-23T14:52:05;97799.28;;;10.80;69.06
24422;BME280;12600;53.326;-6.298;2022-11-23T14:54:56;97796.16;;;10.81;69.67
24422;BME280;12600;53.326;-6.298;2022-11-23T14:57:49;97784.50;;;10.88;69.33
24422;BME280;12600;53.326;-6.298;2022-11-23T15:00:41;97798.53;;;10.86;69.56
24422;BME280;12600;53.326;-6.298;2022-11-23T15:03:33;97784.06;;;10.79;69.95
24422;BME280;12600;53.326;-6.298;2022-11-23T15:06:42;97788.75;;;10.82;69.43
24422;BME280;12600;53.326;-6.298;2022-11-23T15:09:46;97788.38;;;10.87;69.08
24422;BME280;12600;53.326;-6.298;2022-11-23T15:12:43;97784.44;;;10.81;68.63
24422;BME280;12600;53.326;-6.298;2022-11-23T15:15:33;97787.59;;;10.83;68.29
24422;BME280;12600;53.326;-6.298;2022-11-23T15:18:29;97788.75;;;10.82;67.48
24422;BME280;12600;53.326;-6.298;2022-11-23T15:21:21;97791.13;;;10.90;66.70
24422;BME280;12600;53.326;-6.298;2022-11-23T15:24:22;97804.44;;;10.92;66.99
24422;BME280;12600;53.326;-6.298;2022-11-23T15:27:25;97808.34;;;10.91;66.74
24422;BME280;12600;53.326;-6.298;2022-11-23T15:30:18;97809.06;;;10.84;66.85